sensor_id;sensor_type;location;lat;lon;timestamp;P1;durP1;ratioP1;P2;durP2;ratioP2
6306;SDS011;3186;54.062;9.962;2023-08-17T00:00:03;4.13;;;1.70;;
6306;SDS011;3186;54.062;9.962;2023-08-17T00:02:34;9.13;;;1.83;;
6306;SDS011;3186;54.062;9.962;2023-08-17T00:05:00;3.67;;;1.70;;
6306;SDS011;3186;54.062;9.962;2023-08-17T00:07:26;4.80;;;1.83;;
6306;SDS011;3186;54.062;9.962;2023-08-17T00:09:52;2.23;;;1.60;;
6306;SDS011;3186;54.062;9.962;2023-08-17T00:12:17;6.97;;;2.03;;
6306;SDS011;3186;54.062;9.962;2023-08-17T00:14:43;3.10;;;1.70;;
6306;SDS011;3186;54.062;9.962;2023-08-17T00:17:09;2.87;;;1.70;;
6306;SDS011;3186;54.062;9.962;2023-08-17T00:19:35;6.87;;;1.63;;
6306;SDS011;3186;54.062;9.962;2023-08-17T00:22:01;2.20;;;2.00;;
6306;SDS011;3186;54.062;9.962;2023-08-17T00:24:26;5.17;;;1.73;;
6306;SDS011;3186;54.062;9.962;2023-08-17T00:26:53;2.93;;;1.87;;
6306;SDS011;3186;54.062;9.962;2023-08-17T00:29:18;4.23;;;1.93;;
6306;SDS011;3186;54.062;9.962;2023-08-17T00:31:44;4.40;;;1.77;;
6306;SDS011;3186;54.062;9.962;2023-08-17T00:34:11;6.80;;;1.80;;
6306;SDS011;3186;54.062;9.962;2023-08-17T00:36:37;2.00;;;1.50;;
6306;SDS011;3186;54.062;9.962;2023-08-17T00:39:03;2.77;;;1.30;;
6306;SDS011;3186;54.062;9.962;2023-08-17T00:41:29;5.77;;;1.80;;
6306;SDS011;3186;54.062;9.962;2023-08-17T00:43:56;3.30;;;1.80;;
6306;SDS011;3186;54.062;9.962;2023-08-17T00:46:23;5.10;;;1.77;;
6306;SDS011;3186;54.062;9.962;2023-08-17T00:48:50;4.93;;;1.70;;
6306;SDS011;3186;54.062;9.962;2023-08-17T00:51:16;2.00;;;1.80;;
6306;SDS011;3186;54.062;9.962;2023-08-17T00:53:45;2.60;;;1.70;;
6306;SDS011;3186;54.062;9.962;2023-08-17T00:56:11;3.57;;;1.70;;
6306;SDS011;3186;54.062;9.962;2023-08-17T00:58:37;4.37;;;1.70;;
6306;SDS011;3186;54.062;9.962;2023-08-17T01:01:07;2.67;;;1.70;;
6306;SDS011;3186;54.062;9.962;2023-08-17T01:03:35;3.43;;;1.93;;
6306;SDS011;3186;54.062;9.962;2023-08-17T01:06:01;3.83;;;1.70;;
6306;SDS011;3186;54.062;9.962;2023-08-17T01:08:28;2.83;;;1.90;;
6306;SDS011;3186;54.062;9.962;2023-08-17T01:11:04;4.77;;;2.23;;
6306;SDS011;3186;54.062;9.962;2023-08-17T01:16:09;4.73;;;2.30;;
6306;SDS011;3186;54.062;9.962;2023-08-17T01:18:41;4.83;;;1.60;;
6306;SDS011;3186;54.062;9.962;2023-08-17T01:21:10;5.20;;;1.97;;
6306;SDS011;3186;54.062;9.962;2023-08-17T01:23:38;6.83;;;1.80;;
6306;SDS011;3186;54.062;9.962;2023-08-17T01:26:04;9.00;;;2.30;;
6306;SDS011;3186;54.062;9.962;2023-08-17T01:28:30;7.93;;;1.90;;
6306;SDS011;3186;54.062;9.962;2023-08-17T01:30:58;5.17;;;1.70;;
6306;SDS011;3186;54.062;9.962;2023-08-17T01:33:35;6.67;;;1.83;;
6306;SDS011;3186;54.062;9.962;2023-08-17T01:36:26;5.87;;;1.87;;
6306;SDS011;3186;54.062;9.962;2023-08-17T01:38:57;5.03;;;1.90;;
6306;SDS011;3186;54.062;9.962;2023-08-17T01:41:25;3.13;;;1.97;;
6306;SDS011;3186;54.062;9.962;2023-08-17T01:43:52;5.57;;;1.93;;
6306;SDS011;3186;54.062;9.962;2023-08-17T01:46:20;2.30;;;1.80;;
6306;SDS011;3186;54.062;9.962;2023-08-17T01:48:46;5.10;;;1.90;;
6306;SDS011;3186;54.062;9.962;2023-08-17T01:51:19;3.53;;;2.10;;
6306;SDS011;3186;54.062;9.962;2023-08-17T01:53:45;4.27;;;1.80;;
6306;SDS011;3186;54.062;9.962;2023-08-17T01:56:11;2.10;;;1.73;;
6306;SDS011;3186;54.062;9.962;2023-08-17T01:58:37;5.37;;;2.07;;
6306;SDS011;3186;54.062;9.962;2023-08-17T02:01:04;3.40;;;1.97;;
6306;SDS011;3186;54.062;9.962;2023-08-17T02:03:31;4.60;;;1.87;;
6306;SDS011;3186;54.062;9.962;2023-08-17T02:05:57;6.43;;;2.13;;
6306;SDS011;3186;54.062;9.962;2023-08-17T02:08:23;3.83;;;2.00;;
6306;SDS011;3186;54.062;9.962;2023-08-17T02:10:49;3.93;;;1.83;;
6306;SDS011;3186;54.062;9.962;2023-08-17T02:13:15;2.93;;;2.03;;
6306;SDS011;3186;54.062;9.962;2023-08-17T02:15:41;5.27;;;1.80;;
6306;SDS011;3186;54.062;9.962;2023-08-17T02:18:07;5.03;;;2.20;;
6306;SDS011;3186;54.062;9.962;2023-08-17T02:20:34;6.33;;;2.20;;
6306;SDS011;3186;54.062;9.962;2023-08-17T02:23:00;7.50;;;2.17;;
6306;SDS011;3186;54.062;9.962;2023-08-17T02:25:26;7.87;;;2.30;;
6306;SDS011;3186;54.062;9.962;2023-08-17T02:27:59;4.90;;;2.13;;
6306;SDS011;3186;54.062;9.962;2023-08-17T02:30:25;4.30;;;1.73;;
6306;SDS011;3186;54.062;9.962;2023-08-17T02:32:51;3.30;;;2.00;;
6306;SDS011;3186;54.062;9.962;2023-08-17T02:35:18;5.73;;;2.20;;
6306;SDS011;3186;54.062;9.962;2023-08-17T02:37:44;2.97;;;1.97;;
6306;SDS011;3186;54.062;9.962;2023-08-17T02:40:10;3.30;;;1.77;;
6306;SDS011;3186;54.062;9.962;2023-08-17T02:42:36;4.40;;;2.07;;
6306;SDS011;3186;54.062;9.962;2023-08-17T02:45:02;7.70;;;2.00;;
6306;SDS011;3186;54.062;9.962;2023-08-17T02:47:28;4.13;;;2.27;;
6306;SDS011;3186;54.062;9.962;2023-08-17T02:49:54;6.63;;;2.00;;
6306;SDS011;3186;54.062;9.962;2023-08-17T02:52:20;5.63;;;2.00;;
6306;SDS011;3186;54.062;9.962;2023-08-17T02:54:46;6.20;;;2.40;;
6306;SDS011;3186;54.062;9.962;2023-08-17T02:57:12;4.13;;;2.43;;
6306;SDS011;3186;54.062;9.962;2023-08-17T02:59:38;4.40;;;2.13;;
6306;SDS011;3186;54.062;9.962;2023-08-17T03:02:04;2.63;;;1.77;;
6306;SDS011;3186;54.062;9.962;2023-08-17T03:04:30;5.43;;;2.03;;
6306;SDS011;3186;54.062;9.962;2023-08-17T03:06:56;5.43;;;2.13;;
6306;SDS011;3186;54.062;9.962;2023-08-17T03:09:22;2.60;;;1.90;;
6306;SDS011;3186;54.062;9.962;2023-08-17T03:11:47;1.87;;;1.60;;
6306;SDS011;3186;54.062;9.962;2023-08-17T03:14:13;7.37;;;2.50;;
6306;SDS011;3186;54.062;9.962;2023-08-17T03:16:39;5.23;;;2.43;;
6306;SDS011;3186;54.062;9.962;2023-08-17T03:19:05;3.10;;;2.23;;
6306;SDS011;3186;54.062;9.962;2023-08-17T03:21:33;3.77;;;2.13;;
6306;SDS011;3186;54.062;9.962;2023-08-17T03:23:59;3.07;;;2.37;;
6306;SDS011;3186;54.062;9.962;2023-08-17T03:26:25;3.03;;;2.20;;
6306;SDS011;3186;54.062;9.962;2023-08-17T03:28:51;3.00;;;1.83;;
6306;SDS011;3186;54.062;9.962;2023-08-17T03:31:19;2.97;;;1.83;;
6306;SDS011;3186;54.062;9.962;2023-08-17T03:33:47;3.07;;;2.40;;
6306;SDS011;3186;54.062;9.962;2023-08-17T03:36:13;3.67;;;1.73;;
6306;SDS011;3186;54.062;9.962;2023-08-17T03:38:39;3.70;;;2.03;;
6306;SDS011;3186;54.062;9.962;2023-08-17T03:41:05;2.83;;;2.10;;
6306;SDS011;3186;54.062;9.962;2023-08-17T03:43:32;5.37;;;2.00;;
6306;SDS011;3186;54.062;9.962;2023-08-17T03:45:59;6.77;;;2.43;;
6306;SDS011;3186;54.062;9.962;2023-08-17T03:48:25;2.43;;;2.13;;
6306;SDS011;3186;54.062;9.962;2023-08-17T03:50:54;3.50;;;2.10;;
6306;SDS011;3186;54.062;9.962;2023-08-17T03:53:20;2.83;;;1.93;;
6306;SDS011;3186;54.062;9.962;2023-08-17T03:55:50;3.37;;;2.10;;
6306;SDS011;3186;54.062;9.962;2023-08-17T03:58:17;3.43;;;1.73;;
6306;SDS011;3186;54.062;9.962;2023-08-17T04:00:52;3.10;;;2.00;;
6306;SDS011;3186;54.062;9.962;2023-08-17T04:03:25;4.37;;;2.00;;
6306;SDS011;3186;54.062;9.962;2023-08-17T04:05:51;3.20;;;1.93;;
6306;SDS011;3186;54.062;9.962;2023-08-17T04:08:17;4.73;;;1.97;;
6306;SDS011;3186;54.062;9.962;2023-08-17T04:10:43;3.83;;;1.87;;
6306;SDS011;3186;54.062;9.962;2023-08-17T04:13:08;2.97;;;2.00;;
6306;SDS011;3186;54.062;9.962;2023-08-17T04:15:34;5.27;;;2.20;;
6306;SDS011;3186;54.062;9.962;2023-08-17T04:18:00;2.47;;;1.77;;
6306;SDS011;3186;54.062;9.962;2023-08-17T04:20:27;6.40;;;2.23;;
6306;SDS011;3186;54.062;9.962;2023-08-17T04:22:53;2.37;;;1.87;;
6306;SDS011;3186;54.062;9.962;2023-08-17T04:25:19;3.57;;;2.07;;
6306;SDS011;3186;54.062;9.962;2023-08-17T04:27:45;3.27;;;2.10;;
6306;SDS011;3186;54.062;9.962;2023-08-17T04:30:11;4.90;;;2.07;;
6306;SDS011;3186;54.062;9.962;2023-08-17T04:32:47;3.53;;;1.97;;
6306;SDS011;3186;54.062;9.962;2023-08-17T04:35:19;2.97;;;1.90;;
6306;SDS011;3186;54.062;9.962;2023-08-17T04:37:45;5.53;;;2.20;;
6306;SDS011;3186;54.062;9.962;2023-08-17T04:40:12;2.83;;;1.80;;
6306;SDS011;3186;54.062;9.962;2023-08-17T04:42:39;3.87;;;2.07;;
6306;SDS011;3186;54.062;9.962;2023-08-17T04:45:05;7.23;;;2.23;;
6306;SDS011;3186;54.062;9.962;2023-08-17T04:47:34;4.47;;;2.20;;
6306;SDS011;3186;54.062;9.962;2023-08-17T04:50:00;4.33;;;2.00;;
6306;SDS011;3186;54.062;9.962;2023-08-17T04:52:26;2.47;;;1.97;;
6306;SDS011;3186;54.062;9.962;2023-08-17T04:54:52;5.33;;;2.20;;
6306;SDS011;3186;54.062;9.962;2023-08-17T04:57:18;2.33;;;1.83;;
6306;SDS011;3186;54.062;9.962;2023-08-17T04:59:44;5.77;;;2.00;;
6306;SDS011;3186;54.062;9.962;2023-08-17T05:02:11;4.30;;;2.27;;
6306;SDS011;3186;54.062;9.962;2023-08-17T05:04:38;4.53;;;2.27;;
6306;SDS011;3186;54.062;9.962;2023-08-17T05:07:05;3.43;;;1.73;;
6306;SDS011;3186;54.062;9.962;2023-08-17T05:09:31;6.63;;;1.90;;
6306;SDS011;3186;54.062;9.962;2023-08-17T05:11:57;1.80;;;1.60;;
6306;SDS011;3186;54.062;9.962;2023-08-17T05:14:23;2.53;;;1.50;;
6306;SDS011;3186;54.062;9.962;2023-08-17T05:16:49;2.83;;;1.90;;
6306;SDS011;3186;54.062;9.962;2023-08-17T05:19:14;3.60;;;1.93;;
6306;SDS011;3186;54.062;9.962;2023-08-17T05:21:40;2.90;;;1.70;;
6306;SDS011;3186;54.062;9.962;2023-08-17T05:24:07;1.73;;;1.60;;
6306;SDS011;3186;54.062;9.962;2023-08-17T05:26:33;2.83;;;1.90;;
6306;SDS011;3186;54.062;9.962;2023-08-17T05:28:59;3.63;;;1.60;;
6306;SDS011;3186;54.062;9.962;2023-08-17T05:31:25;6.70;;;2.17;;
6306;SDS011;3186;54.062;9.962;2023-08-17T05:33:52;3.40;;;1.77;;
6306;SDS011;3186;54.062;9.962;2023-08-17T05:36:19;1.83;;;1.70;;
6306;SDS011;3186;54.062;9.962;2023-08-17T05:38:46;4.40;;;2.10;;
6306;SDS011;3186;54.062;9.962;2023-08-17T05:41:12;2.67;;;1.40;;
6306;SDS011;3186;54.062;9.962;2023-08-17T05:43:38;2.77;;;1.73;;
6306;SDS011;3186;54.062;9.962;2023-08-17T05:46:04;4.67;;;1.83;;
6306;SDS011;3186;54.062;9.962;2023-08-17T05:48:29;5.47;;;2.00;;
6306;SDS011;3186;54.062;9.962;2023-08-17T05:50:55;3.27;;;1.73;;
6306;SDS011;3186;54.062;9.962;2023-08-17T05:53:21;5.90;;;1.93;;
6306;SDS011;3186;54.062;9.962;2023-08-17T05:55:47;2.67;;;1.97;;
6306;SDS011;3186;54.062;9.962;2023-08-17T05:58:13;5.20;;;1.70;;
6306;SDS011;3186;54.062;9.962;2023-08-17T06:00:38;2.63;;;1.43;;
6306;SDS011;3186;54.062;9.962;2023-08-17T06:03:04;2.63;;;1.60;;
6306;SDS011;3186;54.062;9.962;2023-08-17T06:05:30;4.37;;;1.80;;
6306;SDS011;3186;54.062;9.962;2023-08-17T06:07:56;3.87;;;1.70;;
6306;SDS011;3186;54.062;9.962;2023-08-17T06:10:23;2.70;;;1.70;;
6306;SDS011;3186;54.062;9.962;2023-08-17T06:12:52;2.67;;;1.90;;
6306;SDS011;3186;54.062;9.962;2023-08-17T06:15:21;2.00;;;1.70;;
6306;SDS011;3186;54.062;9.962;2023-08-17T06:17:48;3.87;;;1.83;;
6306;SDS011;3186;54.062;9.962;2023-08-17T06:20:17;4.80;;;2.10;;
6306;SDS011;3186;54.062;9.962;2023-08-17T06:22:43;3.23;;;1.77;;
6306;SDS011;3186;54.062;9.962;2023-08-17T06:25:09;3.97;;;1.93;;
6306;SDS011;3186;54.062;9.962;2023-08-17T06:27:35;3.93;;;2.00;;
6306;SDS011;3186;54.062;9.962;2023-08-17T06:30:02;3.73;;;1.50;;
6306;SDS011;3186;54.062;9.962;2023-08-17T06:32:29;5.90;;;1.90;;
6306;SDS011;3186;54.062;9.962;2023-08-17T06:34:55;2.70;;;1.97;;
6306;SDS011;3186;54.062;9.962;2023-08-17T06:37:20;3.67;;;1.73;;
6306;SDS011;3186;54.062;9.962;2023-08-17T06:39:46;3.50;;;1.77;;
6306;SDS011;3186;54.062;9.962;2023-08-17T06:42:12;2.30;;;1.60;;
6306;SDS011;3186;54.062;9.962;2023-08-17T06:44:37;3.03;;;1.63;;
6306;SDS011;3186;54.062;9.962;2023-08-17T06:47:03;3.63;;;1.80;;
6306;SDS011;3186;54.062;9.962;2023-08-17T06:49:30;3.73;;;1.93;;
6306;SDS011;3186;54.062;9.962;2023-08-17T06:51:55;3.80;;;1.57;;
6306;SDS011;3186;54.062;9.962;2023-08-17T06:54:21;3.67;;;2.00;;
6306;SDS011;3186;54.062;9.962;2023-08-17T06:56:47;3.60;;;1.93;;
6306;SDS011;3186;54.062;9.962;2023-08-17T06:59:12;3.30;;;1.60;;
6306;SDS011;3186;54.062;9.962;2023-08-17T07:01:38;3.23;;;1.73;;
6306;SDS011;3186;54.062;9.962;2023-08-17T07:04:04;2.90;;;1.67;;
6306;SDS011;3186;54.062;9.962;2023-08-17T07:06:29;5.83;;;2.00;;
6306;SDS011;3186;54.062;9.962;2023-08-17T07:08:55;2.80;;;1.87;;
6306;SDS011;3186;54.062;9.962;2023-08-17T07:11:21;4.27;;;1.90;;
6306;SDS011;3186;54.062;9.962;2023-08-17T07:13:47;2.07;;;1.67;;
6306;SDS011;3186;54.062;9.962;2023-08-17T07:16:13;3.07;;;2.10;;
6306;SDS011;3186;54.062;9.962;2023-08-17T07:18:39;1.77;;;1.67;;
6306;SDS011;3186;54.062;9.962;2023-08-17T07:21:05;5.77;;;1.87;;
6306;SDS011;3186;54.062;9.962;2023-08-17T07:23:31;4.27;;;1.50;;
6306;SDS011;3186;54.062;9.962;2023-08-17T07:25:56;5.73;;;1.83;;
6306;SDS011;3186;54.062;9.962;2023-08-17T07:28:22;5.17;;;1.93;;
6306;SDS011;3186;54.062;9.962;2023-08-17T07:30:48;1.93;;;1.50;;
6306;SDS011;3186;54.062;9.962;2023-08-17T07:33:13;2.67;;;1.83;;
6306;SDS011;3186;54.062;9.962;2023-08-17T07:35:39;2.77;;;1.97;;
6306;SDS011;3186;54.062;9.962;2023-08-17T07:38:05;3.13;;;1.93;;
6306;SDS011;3186;54.062;9.962;2023-08-17T07:40:30;3.33;;;1.97;;
6306;SDS011;3186;54.062;9.962;2023-08-17T07:42:56;4.17;;;1.70;;
6306;SDS011;3186;54.062;9.962;2023-08-17T07:45:22;3.10;;;2.00;;
6306;SDS011;3186;54.062;9.962;2023-08-17T07:47:47;2.97;;;1.80;;
6306;SDS011;3186;54.062;9.962;2023-08-17T07:50:13;4.83;;;1.73;;
6306;SDS011;3186;54.062;9.962;2023-08-17T07:52:39;2.60;;;2.00;;
6306;SDS011;3186;54.062;9.962;2023-08-17T07:55:04;3.87;;;1.93;;
6306;SDS011;3186;54.062;9.962;2023-08-17T07:57:30;2.37;;;1.90;;
6306;SDS011;3186;54.062;9.962;2023-08-17T07:59:56;4.10;;;1.93;;
6306;SDS011;3186;54.062;9.962;2023-08-17T08:02:21;3.47;;;1.80;;
6306;SDS011;3186;54.062;9.962;2023-08-17T08:04:47;4.20;;;2.00;;
6306;SDS011;3186;54.062;9.962;2023-08-17T08:07:13;3.83;;;2.10;;
6306;SDS011;3186;54.062;9.962;2023-08-17T08:09:38;2.43;;;1.83;;
6306;SDS011;3186;54.062;9.962;2023-08-17T08:12:04;2.70;;;1.87;;
6306;SDS011;3186;54.062;9.962;2023-08-17T08:14:30;3.87;;;2.03;;
6306;SDS011;3186;54.062;9.962;2023-08-17T08:16:56;3.60;;;2.20;;
6306;SDS011;3186;54.062;9.962;2023-08-17T08:19:22;4.03;;;2.07;;
6306;SDS011;3186;54.062;9.962;2023-08-17T08:21:47;4.23;;;2.50;;
6306;SDS011;3186;54.062;9.962;2023-08-17T08:24:13;3.60;;;2.00;;
6306;SDS011;3186;54.062;9.962;2023-08-17T08:26:38;4.27;;;2.20;;
6306;SDS011;3186;54.062;9.962;2023-08-17T08:29:04;6.87;;;1.87;;
6306;SDS011;3186;54.062;9.962;2023-08-17T08:31:30;2.77;;;2.20;;
6306;SDS011;3186;54.062;9.962;2023-08-17T08:33:56;2.77;;;1.80;;
6306;SDS011;3186;54.062;9.962;2023-08-17T08:36:21;6.73;;;1.80;;
6306;SDS011;3186;54.062;9.962;2023-08-17T08:38:47;6.70;;;2.30;;
6306;SDS011;3186;54.062;9.962;2023-08-17T08:41:13;4.47;;;1.83;;
6306;SDS011;3186;54.062;9.962;2023-08-17T08:43:38;3.40;;;2.00;;
6306;SDS011;3186;54.062;9.962;2023-08-17T08:46:04;1.70;;;1.60;;
6306;SDS011;3186;54.062;9.962;2023-08-17T08:48:31;5.00;;;2.17;;
6306;SDS011;3186;54.062;9.962;2023-08-17T08:50:58;3.40;;;1.70;;
6306;SDS011;3186;54.062;9.962;2023-08-17T08:53:28;4.97;;;2.27;;
6306;SDS011;3186;54.062;9.962;2023-08-17T08:55:59;4.60;;;2.10;;
6306;SDS011;3186;54.062;9.962;2023-08-17T08:58:26;3.17;;;1.77;;
6306;SDS011;3186;54.062;9.962;2023-08-17T09:00:54;4.33;;;2.63;;
6306;SDS011;3186;54.062;9.962;2023-08-17T09:03:20;5.63;;;2.20;;
6306;SDS011;3186;54.062;9.962;2023-08-17T09:05:47;6.33;;;2.17;;
6306;SDS011;3186;54.062;9.962;2023-08-17T09:08:14;3.73;;;2.00;;
6306;SDS011;3186;54.062;9.962;2023-08-17T09:10:41;3.70;;;2.20;;
6306;SDS011;3186;54.062;9.962;2023-08-17T09:13:07;4.97;;;2.40;;
6306;SDS011;3186;54.062;9.962;2023-08-17T09:15:34;4.43;;;2.10;;
6306;SDS011;3186;54.062;9.962;2023-08-17T09:18:00;4.00;;;2.27;;
6306;SDS011;3186;54.062;9.962;2023-08-17T09:23:21;5.60;;;2.33;;
6306;SDS011;3186;54.062;9.962;2023-08-17T09:25:48;3.80;;;2.50;;
6306;SDS011;3186;54.062;9.962;2023-08-17T09:28:18;5.63;;;2.30;;
6306;SDS011;3186;54.062;9.962;2023-08-17T09:30:49;2.40;;;2.17;;
6306;SDS011;3186;54.062;9.962;2023-08-17T09:33:18;5.63;;;2.40;;
6306;SDS011;3186;54.062;9.962;2023-08-17T09:35:48;4.07;;;2.27;;
6306;SDS011;3186;54.062;9.962;2023-08-17T09:38:18;3.73;;;2.37;;
6306;SDS011;3186;54.062;9.962;2023-08-17T09:40:44;2.63;;;1.70;;
6306;SDS011;3186;54.062;9.962;2023-08-17T09:43:10;8.73;;;2.27;;
6306;SDS011;3186;54.062;9.962;2023-08-17T09:45:37;4.37;;;2.20;;
6306;SDS011;3186;54.062;9.962;2023-08-17T09:48:04;7.23;;;2.50;;
6306;SDS011;3186;54.062;9.962;2023-08-17T09:50:31;3.53;;;2.30;;
6306;SDS011;3186;54.062;9.962;2023-08-17T09:52:57;5.30;;;2.30;;
6306;SDS011;3186;54.062;9.962;2023-08-17T09:55:23;4.50;;;2.37;;
6306;SDS011;3186;54.062;9.962;2023-08-17T09:57:49;2.33;;;2.13;;
6306;SDS011;3186;54.062;9.962;2023-08-17T10:00:16;3.93;;;1.90;;
6306;SDS011;3186;54.062;9.962;2023-08-17T10:02:42;5.77;;;2.10;;
6306;SDS011;3186;54.062;9.962;2023-08-17T10:05:17;5.20;;;2.10;;
6306;SDS011;3186;54.062;9.962;2023-08-17T10:07:46;5.70;;;2.67;;
6306;SDS011;3186;54.062;9.962;2023-08-17T10:10:16;3.53;;;2.30;;
6306;SDS011;3186;54.062;9.962;2023-08-17T10:13:31;3.53;;;2.00;;
6306;SDS011;3186;54.062;9.962;2023-08-17T10:15:41;6.50;;;2.40;;
6306;SDS011;3186;54.062;9.962;2023-08-17T10:18:17;4.13;;;2.10;;
6306;SDS011;3186;54.062;9.962;2023-08-17T10:21:02;4.43;;;2.10;;
6306;SDS011;3186;54.062;9.962;2023-08-17T10:23:41;3.23;;;2.20;;
6306;SDS011;3186;54.062;9.962;2023-08-17T10:26:09;5.30;;;2.50;;
6306;SDS011;3186;54.062;9.962;2023-08-17T10:28:35;5.57;;;2.60;;
6306;SDS011;3186;54.062;9.962;2023-08-17T10:31:02;3.60;;;2.23;;
6306;SDS011;3186;54.062;9.962;2023-08-17T10:33:28;4.00;;;2.03;;
6306;SDS011;3186;54.062;9.962;2023-08-17T10:35:55;2.87;;;2.30;;
6306;SDS011;3186;54.062;9.962;2023-08-17T10:38:21;3.90;;;2.30;;
6306;SDS011;3186;54.062;9.962;2023-08-17T10:41:01;5.57;;;2.40;;
6306;SDS011;3186;54.062;9.962;2023-08-17T10:43:33;3.13;;;2.37;;
6306;SDS011;3186;54.062;9.962;2023-08-17T10:46:15;7.73;;;2.13;;
6306;SDS011;3186;54.062;9.962;2023-08-17T10:48:43;4.87;;;2.10;;
6306;SDS011;3186;54.062;9.962;2023-08-17T10:51:09;3.27;;;2.40;;
6306;SDS011;3186;54.062;9.962;2023-08-17T10:53:38;4.60;;;2.50;;
6306;SDS011;3186;54.062;9.962;2023-08-17T10:56:10;5.17;;;2.53;;
6306;SDS011;3186;54.062;9.962;2023-08-17T10:58:37;8.10;;;2.80;;
6306;SDS011;3186;54.062;9.962;2023-08-17T11:01:03;3.87;;;2.20;;
6306;SDS011;3186;54.062;9.962;2023-08-17T11:03:29;4.37;;;2.70;;
6306;SDS011;3186;54.062;9.962;2023-08-17T11:05:56;5.73;;;2.70;;
6306;SDS011;3186;54.062;9.962;2023-08-17T11:13:33;5.37;;;3.00;;
6306;SDS011;3186;54.062;9.962;2023-08-17T11:16:00;5.73;;;3.57;;
6306;SDS011;3186;54.062;9.962;2023-08-17T11:18:26;7.07;;;3.20;;
6306;SDS011;3186;54.062;9.962;2023-08-17T11:20:52;5.37;;;2.90;;
6306;SDS011;3186;54.062;9.962;2023-08-17T11:23:19;4.27;;;2.87;;
6306;SDS011;3186;54.062;9.962;2023-08-17T11:25:46;5.27;;;2.80;;
6306;SDS011;3186;54.062;9.962;2023-08-17T11:28:12;4.37;;;2.70;;
6306;SDS011;3186;54.062;9.962;2023-08-17T11:30:39;3.77;;;2.47;;
6306;SDS011;3186;54.062;9.962;2023-08-17T11:33:06;3.87;;;2.53;;
6306;SDS011;3186;54.062;9.962;2023-08-17T11:35:32;3.23;;;2.37;;
6306;SDS011;3186;54.062;9.962;2023-08-17T11:37:58;3.37;;;2.50;;
6306;SDS011;3186;54.062;9.962;2023-08-17T11:40:24;5.83;;;2.50;;
6306;SDS011;3186;54.062;9.962;2023-08-17T11:42:51;4.73;;;2.50;;
6306;SDS011;3186;54.062;9.962;2023-08-17T11:45:18;4.37;;;2.60;;
6306;SDS011;3186;54.062;9.962;2023-08-17T11:47:46;5.40;;;2.67;;
6306;SDS011;3186;54.062;9.962;2023-08-17T11:50:13;4.50;;;2.47;;
6306;SDS011;3186;54.062;9.962;2023-08-17T11:52:39;4.93;;;2.63;;
6306;SDS011;3186;54.062;9.962;2023-08-17T11:55:06;5.17;;;2.60;;
6306;SDS011;3186;54.062;9.962;2023-08-17T11:57:35;3.50;;;2.40;;
6306;SDS011;3186;54.062;9.962;2023-08-17T12:00:02;6.43;;;2.57;;
6306;SDS011;3186;54.062;9.962;2023-08-17T12:02:30;10.17;;;3.03;;
6306;SDS011;3186;54.062;9.962;2023-08-17T12:04:56;5.03;;;2.50;;
6306;SDS011;3186;54.062;9.962;2023-08-17T12:07:25;2.80;;;2.10;;
6306;SDS011;3186;54.062;9.962;2023-08-17T12:09:51;5.77;;;2.60;;
6306;SDS011;3186;54.062;9.962;2023-08-17T12:12:24;2.47;;;2.00;;
6306;SDS011;3186;54.062;9.962;2023-08-17T12:14:50;4.53;;;1.80;;
6306;SDS011;3186;54.062;9.962;2023-08-17T12:17:19;4.23;;;2.37;;
6306;SDS011;3186;54.062;9.962;2023-08-17T12:19:48;5.23;;;2.10;;
6306;SDS011;3186;54.062;9.962;2023-08-17T12:22:16;6.83;;;2.47;;
6306;SDS011;3186;54.062;9.962;2023-08-17T12:24:41;6.10;;;2.60;;
6306;SDS011;3186;54.062;9.962;2023-08-17T12:27:08;4.77;;;2.63;;
6306;SDS011;3186;54.062;9.962;2023-08-17T12:29:45;3.77;;;2.80;;
6306;SDS011;3186;54.062;9.962;2023-08-17T12:32:14;5.73;;;2.43;;
6306;SDS011;3186;54.062;9.962;2023-08-17T12:34:42;4.73;;;2.33;;
6306;SDS011;3186;54.062;9.962;2023-08-17T12:37:08;2.87;;;2.67;;
6306;SDS011;3186;54.062;9.962;2023-08-17T12:39:35;5.13;;;2.73;;
6306;SDS011;3186;54.062;9.962;2023-08-17T12:42:01;5.23;;;2.53;;
6306;SDS011;3186;54.062;9.962;2023-08-17T12:44:27;4.90;;;2.40;;
6306;SDS011;3186;54.062;9.962;2023-08-17T12:46:53;6.33;;;3.10;;
6306;SDS011;3186;54.062;9.962;2023-08-17T12:49:18;4.27;;;2.63;;
6306;SDS011;3186;54.062;9.962;2023-08-17T12:51:44;7.33;;;2.40;;
6306;SDS011;3186;54.062;9.962;2023-08-17T12:54:10;3.00;;;2.37;;
6306;SDS011;3186;54.062;9.962;2023-08-17T12:56:35;5.57;;;2.67;;
6306;SDS011;3186;54.062;9.962;2023-08-17T12:59:01;5.10;;;2.60;;
6306;SDS011;3186;54.062;9.962;2023-08-17T13:01:26;3.20;;;2.83;;
6306;SDS011;3186;54.062;9.962;2023-08-17T13:03:52;7.13;;;3.20;;
6306;SDS011;3186;54.062;9.962;2023-08-17T13:06:18;5.43;;;2.93;;
6306;SDS011;3186;54.062;9.962;2023-08-17T13:08:43;4.07;;;2.43;;
6306;SDS011;3186;54.062;9.962;2023-08-17T13:11:10;6.37;;;2.67;;
6306;SDS011;3186;54.062;9.962;2023-08-17T13:13:35;3.20;;;2.40;;
6306;SDS011;3186;54.062;9.962;2023-08-17T13:16:01;4.73;;;2.77;;
6306;SDS011;3186;54.062;9.962;2023-08-17T13:18:27;4.60;;;2.77;;
6306;SDS011;3186;54.062;9.962;2023-08-17T13:20:53;3.80;;;2.77;;
6306;SDS011;3186;54.062;9.962;2023-08-17T13:23:19;4.73;;;2.70;;
6306;SDS011;3186;54.062;9.962;2023-08-17T13:25:45;7.00;;;2.90;;
6306;SDS011;3186;54.062;9.962;2023-08-17T13:28:11;5.57;;;2.90;;
6306;SDS011;3186;54.062;9.962;2023-08-17T13:30:40;3.17;;;2.60;;
6306;SDS011;3186;54.062;9.962;2023-08-17T13:33:06;4.13;;;2.60;;
6306;SDS011;3186;54.062;9.962;2023-08-17T13:35:32;7.60;;;2.53;;
6306;SDS011;3186;54.062;9.962;2023-08-17T13:37:58;4.93;;;2.70;;
6306;SDS011;3186;54.062;9.962;2023-08-17T13:40:24;7.60;;;2.90;;
6306;SDS011;3186;54.062;9.962;2023-08-17T13:42:49;7.63;;;3.60;;
6306;SDS011;3186;54.062;9.962;2023-08-17T13:45:15;5.13;;;2.63;;
6306;SDS011;3186;54.062;9.962;2023-08-17T13:47:41;4.57;;;2.67;;
6306;SDS011;3186;54.062;9.962;2023-08-17T13:50:07;5.40;;;2.87;;
6306;SDS011;3186;54.062;9.962;2023-08-17T13:52:33;6.43;;;2.70;;
6306;SDS011;3186;54.062;9.962;2023-08-17T13:54:58;6.43;;;2.97;;
6306;SDS011;3186;54.062;9.962;2023-08-17T13:57:24;3.93;;;2.50;;
6306;SDS011;3186;54.062;9.962;2023-08-17T13:59:50;5.87;;;2.47;;
6306;SDS011;3186;54.062;9.962;2023-08-17T14:02:17;10.97;;;3.73;;
6306;SDS011;3186;54.062;9.962;2023-08-17T14:04:43;5.00;;;3.57;;
6306;SDS011;3186;54.062;9.962;2023-08-17T14:07:09;5.57;;;3.03;;
6306;SDS011;3186;54.062;9.962;2023-08-17T14:09:35;7.00;;;2.90;;
6306;SDS011;3186;54.062;9.962;2023-08-17T14:12:00;4.47;;;2.77;;
6306;SDS011;3186;54.062;9.962;2023-08-17T14:14:26;10.20;;;4.90;;
6306;SDS011;3186;54.062;9.962;2023-08-17T14:16:52;7.67;;;5.13;;
6306;SDS011;3186;54.062;9.962;2023-08-17T14:19:18;7.33;;;4.33;;
6306;SDS011;3186;54.062;9.962;2023-08-17T14:21:43;10.33;;;4.57;;
6306;SDS011;3186;54.062;9.962;2023-08-17T14:24:09;7.33;;;3.47;;
6306;SDS011;3186;54.062;9.962;2023-08-17T14:26:35;5.50;;;3.13;;
6306;SDS011;3186;54.062;9.962;2023-08-17T14:29:01;8.90;;;3.63;;
6306;SDS011;3186;54.062;9.962;2023-08-17T14:31:27;8.90;;;3.07;;
6306;SDS011;3186;54.062;9.962;2023-08-17T14:33:53;6.03;;;3.13;;
6306;SDS011;3186;54.062;9.962;2023-08-17T14:36:19;7.47;;;2.90;;
6306;SDS011;3186;54.062;9.962;2023-08-17T14:38:45;7.10;;;3.40;;
6306;SDS011;3186;54.062;9.962;2023-08-17T14:41:11;4.97;;;2.90;;
6306;SDS011;3186;54.062;9.962;2023-08-17T14:43:37;6.90;;;3.30;;
6306;SDS011;3186;54.062;9.962;2023-08-17T14:46:02;5.10;;;3.20;;
6306;SDS011;3186;54.062;9.962;2023-08-17T14:48:28;6.00;;;3.80;;
6306;SDS011;3186;54.062;9.962;2023-08-17T14:50:54;5.07;;;3.03;;
6306;SDS011;3186;54.062;9.962;2023-08-17T14:53:20;3.70;;;3.20;;
6306;SDS011;3186;54.062;9.962;2023-08-17T14:55:45;6.30;;;2.67;;
6306;SDS011;3186;54.062;9.962;2023-08-17T14:58:11;5.50;;;2.97;;
6306;SDS011;3186;54.062;9.962;2023-08-17T15:00:37;6.43;;;3.07;;
6306;SDS011;3186;54.062;9.962;2023-08-17T15:03:02;5.50;;;3.37;;
6306;SDS011;3186;54.062;9.962;2023-08-17T15:05:28;3.93;;;3.00;;
6306;SDS011;3186;54.062;9.962;2023-08-17T15:07:54;4.57;;;2.87;;
6306;SDS011;3186;54.062;9.962;2023-08-17T15:10:19;6.40;;;3.53;;
6306;SDS011;3186;54.062;9.962;2023-08-17T15:12:45;6.77;;;3.37;;
6306;SDS011;3186;54.062;9.962;2023-08-17T15:15:11;4.33;;;2.93;;
6306;SDS011;3186;54.062;9.962;2023-08-17T15:17:37;8.87;;;2.67;;
6306;SDS011;3186;54.062;9.962;2023-08-17T15:20:02;5.00;;;3.17;;
6306;SDS011;3186;54.062;9.962;2023-08-17T15:22:29;7.00;;;3.50;;